< < Back
Terminal Aerodrome Forecast


Current Version              Previous Versions:   1  2  3  4  5  6  7  8  9  

Terminal Aerodrome Forecast

933
FTUS42 KTAE 302300
TAFDHN
TAF
KDHN 302337Z 3100/3124 VRB04KT P6SM SCT050
     FM311800 35006KT P6SM SCT050 SCT250=

Latest METAR

996
SAUS70 KWBC 310500 RRB
MTRDHN
METAR KDHN 310453Z AUTO 00000KT 10SM CLR 20/16 A3006 RMK AO2 SLP173
T02000161 $


USA.gov is the U.S. government's official web portal to all federal, state and local government web resources and services.